Latest Coastal Weather Observations for Point Perpendicular

IDN60701

Issued at 11:51 pm EST Sunday 23 April 2017 (issued every 10 minutes, with the page automatically refreshed every 10 minutes)

About coastal observations | Map of coastal stations | Coastal observations for NSW | Marine services | Other Formats
Station Details ID: 068151 Name: POINT PERPENDICULAR AWS Lat: -35.09 Lon: 150.80 Height: 85.0 m
Data from the previous 72 hours. | See also: Recent months at Point Perpendicular
Date/Time
EST
Temp
°C
Wind Pressure Rain since
9am
mm
Weather Cloud Vis
km
Sea
Height
m
Swell
Dir  Spd
kts
Gust
kts
hPa Trend Height
m
Period
s
Dir
23/11:30pm 17.5 W 1 3 1022.9 - 0.0 - - - - - - -
23/11:00pm 17.5 WSW 2 4 1023.3 - 0.0 - - - - - - -
23/10:30pm 17.8 WSW 3 6 1023.4 - 0.0 - - - - - - -
23/10:00pm 17.9 WNW 1 3 1023.5 - 0.0 - - - - - - -
23/09:30pm 18.0 W 1 2 1023.6 - 0.0 - - - - - - -
23/09:00pm 18.0 W 1 2 1023.5 - 0.0 - - - - - - -
23/08:30pm 18.4 W 1 2 1023.5 - 0.0 - - - - - - -
23/08:00pm 18.7 WNW 1 2 1023.2 - 0.0 - - - - - - -
23/07:30pm 18.9 WSW 1 1 1023.0 - 0.0 - - - - - - -
23/07:00pm 19.1 SW 2 3 1022.8 - 0.0 - - - - - - -
23/06:30pm 19.3 SSW 4 5 1022.4 - 0.0 - - - - - - -
23/06:00pm 19.2 SW 3 5 1022.0 - 0.0 - - - - - - -
23/05:30pm 19.4 SSW 4 6 1021.9 - 0.0 - - - - - - -
23/05:00pm 19.5 SSW 5 7 1021.6 - 0.0 - - - - - - -
23/04:30pm 19.7 SSW 7 10 1021.3 - 0.0 - - - - - - -
23/04:00pm 20.2 SSW 9 12 1021.3 - 0.0 - - - - - - -
23/03:30pm 20.1 SSW 7 11 1021.5 - 0.0 - - - - - - -
23/03:00pm 20.4 SSW 8 12 1021.5 - 0.0 - - - - - - -
23/02:30pm 20.2 SSW 9 12 1021.5 - 0.0 - - - - - - -
23/02:00pm 20.2 SSW 11 15 1021.5 - 0.0 - - - - - - -
23/01:30pm 20.6 S 9 11 1021.4 - 0.0 - - - - - - -
23/01:00pm 21.6 S 6 9 1021.9 - 0.0 - - - - - - -
23/12:30pm 20.8 S 9 12 1022.2 - 0.0 - - - - - - -
23/12:00pm 19.9 S 9 12 1022.7 - 0.0 - - - - - - -
23/11:30am 20.3 S 9 13 1023.0 - 0.0 - - - - - - -
23/11:00am 20.0 S 9 13 1023.4 - 0.0 - - - - - - -
23/10:30am 21.0 SSW 6 11 1023.7 - 0.0 - - - - - - -
23/10:00am 19.5 WSW 4 8 1023.8 - 0.0 - - - - - - -
23/09:30am 19.1 WSW 3 5 1023.9 - 0.0 - - - - - - -
23/09:00am 18.8 WSW 3 5 1023.9 - 0.0 - - - - - - -
23/08:30am 18.1 WSW 2 6 1023.9 - 0.0 - - - - - - -
23/08:00am 18.2 W 1 3 1023.7 - 0.0 - - - - - - -
23/07:30am 17.3 W 1 3 1023.3 - 0.0 - - - - - - -
23/07:00am 16.4 W 1 2 1023.2 - 0.0 - - - - - - -
23/06:30am 16.8 S 1 2 1022.8 - 0.0 - - - - - - -
23/06:00am 16.3 W 2 3 1022.6 - 0.0 - - - - - - -
23/05:30am 16.2 WNW 3 4 1022.5 - 0.0 - - - - - - -
23/05:00am 15.7 WNW 5 6 1022.0 - 0.0 - - - - - - -
23/04:30am 15.5 NNW 5 5 1021.8 - 0.0 - - - - - - -
23/04:00am 15.6 WNW 3 6 1022.0 - 0.0 - - - - - - -
23/03:30am 16.3 WNW 2 2 1021.9 - 0.0 - - - - - - -
23/03:00am 16.8 NW 6 6 1022.1 - 0.0 - - - - - - -
23/02:30am 17.1 NW 6 7 1022.1 - 0.0 - - - - - - -
23/02:00am 17.1 NW 7 7 1022.2 - 0.0 - - - - - - -
23/01:30am 17.2 NW 5 5 1022.5 - 0.0 - - - - - - -
23/01:00am 17.5 NW 5 6 1022.8 - 0.0 - - - - - - -
23/12:30am 17.3 WNW 3 4 1023.0 - 0.0 - - - - - - -
23/12:00am 16.7 WSW 2 2 1023.1 - 0.0 - - - - - - -
 
Date/Time
EST
Temp
°C
Wind Pressure Rain since
9am
mm
Weather Cloud Vis
km
Sea
Height
m
Swell
Dir  Spd
kts
Gust
kts
hPa Trend Height
m
Period
s
Dir
22/11:30pm 16.9 NW 5 6 1023.0 - 0.0 - - - - - - -
22/11:00pm 17.4 NW 4 6 1023.0 - 0.0 - - - - - - -
22/10:30pm 18.0 NNW 6 6 1023.3 - 0.0 - - - - - - -
22/10:00pm 17.8 N 6 6 1023.5 - 0.0 - - - - - - -
22/09:30pm 18.3 NNE 6 6 1023.6 - 0.0 - - - - - - -
22/09:00pm 18.4 NNE 5 5 1023.5 - 0.0 - - - - - - -
22/08:30pm 18.5 NNE 5 6 1023.5 - 0.0 - - - - - - -
22/08:00pm 18.8 NNE 7 8 1023.3 - 0.0 - - - - - - -
22/07:30pm 19.0 NNE 5 6 1023.2 - 0.0 - - - - - - -
22/07:00pm 19.1 NNE 5 7 1023.1 - 0.0 - - - - - - -
22/06:30pm 19.6 NE 6 8 1023.0 - 0.0 - - - - - - -
22/06:00pm 19.6 NNE 7 9 1022.9 - 0.0 - - - - - - -
22/05:30pm 19.8 NNE 7 11 1022.8 - 0.0 - - - - - - -
22/05:00pm 20.4 NNE 9 12 1023.0 - 0.0 - - - - - - -
22/04:30pm 20.8 NNE 9 13 1022.9 - 0.0 - - - - - - -
22/04:00pm 21.6 NNE 10 13 1022.6 - 0.0 - - - - - - -
22/03:30pm 22.4 NNE 9 13 1022.5 - 0.0 - - - - - - -
22/03:00pm 21.3 NNE 11 16 1022.5 - 0.0 - - - - - - -
22/02:30pm 23.0 NNE 11 16 1022.6 - 0.0 - - - - - - -
22/02:00pm 22.1 NNE 11 15 1022.8 - 0.0 - - - - - - -
22/01:30pm 22.9 N 11 16 1022.9 - 0.0 - - - - - - -
22/01:00pm 22.3 NNE 9 13 1023.3 - 0.0 - - - - - - -
22/12:30pm 22.7 N 9 11 1023.6 - 0.0 - - - - - - -
22/12:00pm 21.4 N 6 10 1024.0 - 0.0 - - - - - - -
22/11:30am 20.2 N 6 8 1024.4 - 0.0 - - - - - - -
22/11:00am 19.9 NNW 6 9 1024.9 - 0.0 - - - - - - -
22/10:30am 19.9 NNE 5 7 1025.1 - 0.0 - - - - - - -
22/10:00am 19.4 N 6 9 1025.3 - 0.0 - - - - - - -
22/09:30am 19.4 N 6 9 1025.5 - 0.0 - - - - - - -
22/09:00am 18.3 WNW 3 4 1025.3 - 0.0 - - - - - - -
22/08:30am 19.2 NNW 6 8 1025.4 - 0.0 - - - - - - -
22/08:00am 19.0 N 5 8 1025.4 - 0.0 - - - - - - -
22/07:30am 18.5 NNE 5 6 1024.9 - 0.0 - - - - - - -
22/07:00am 18.0 N 4 5 1024.9 - 0.0 - - - - - - -
22/06:30am 17.7 NNW 3 5 1024.7 - 0.0 - - - - - - -
22/06:00am 18.2 NNW 5 6 1024.7 - 0.0 - - - - - - -
22/05:30am 18.7 NNE 5 6 1024.1 - 0.0 - - - - - - -
22/05:00am 18.3 ENE 4 5 1024.1 - 0.0 - - - - - - -
22/04:30am 17.4 N 1 2 1024.0 - 0.0 - - - - - - -
22/04:00am 17.7 NNW 1 2 1024.1 - 0.0 - - - - - - -
22/03:30am 18.1 WNW 2 2 1024.2 - 0.0 - - - - - - -
22/03:00am 18.0 NW 5 6 1024.3 - 0.0 - - - - - - -
22/02:30am 18.3 NW 3 4 1024.2 - 0.0 - - - - - - -
22/02:00am 18.1 NW 2 3 1024.2 - 0.0 - - - - - - -
22/01:30am 18.4 WNW 2 3 1024.9 - 0.0 - - - - - - -
22/01:00am 18.5 WNW 1 3 1025.1 - 0.0 - - - - - - -
22/12:30am 18.6 NNW 6 9 1025.2 - 0.0 - - - - - - -
22/12:00am 19.2 N 9 14 1024.9 - 0.0 - - - - - - -
 
Date/Time
EST
Temp
°C
Wind Pressure Rain since
9am
mm
Weather Cloud Vis
km
Sea
Height
m
Swell
Dir  Spd
kts
Gust
kts
hPa Trend Height
m
Period
s
Dir
21/11:30pm 19.1 N 8 12 1025.1 - 0.0 - - - - - - -
21/11:00pm 19.1 N 9 12 1025.1 - 0.0 - - - - - - -
21/10:30pm 19.1 N 9 13 1025.2 - 0.0 - - - - - - -
21/10:00pm 19.1 N 8 12 1025.1 - 0.0 - - - - - - -
21/09:30pm 18.9 N 7 8 1025.4 - 0.0 - - - - - - -
21/09:00pm 19.0 NNE 7 11 1025.3 - 0.0 - - - - - - -
21/08:30pm 19.1 N 7 9 1025.5 - 0.0 - - - - - - -
21/08:00pm 19.6 N 7 10 1025.3 - 0.0 - - - - - - -
21/07:30pm 19.9 NNE 9 14 1025.2 - 0.0 - - - - - - -
21/07:00pm 19.9 NE 10 15 1025.1 - 0.0 - - - - - - -
21/06:30pm 20.0 NE 9 14 1024.9 - 0.0 - - - - - - -
21/06:00pm 20.1 NE 7 11 1024.7 - 0.0 - - - - - - -
21/05:30pm 19.8 NNE 7 10 1024.6 - 0.0 - - - - - - -
21/05:00pm 20.3 NE 7 11 1024.5 - 0.0 - - - - - - -
21/04:30pm 20.6 NNE 8 13 1024.6 - 0.0 - - - - - - -
21/04:00pm 20.7 NNE 9 12 1024.5 - 0.0 - - - - - - -
21/03:30pm 20.7 NE 9 13 1024.6 - 0.0 - - - - - - -
21/03:00pm 20.9 NE 10 15 1024.7 - 0.0 - - - - - - -
21/02:30pm 21.3 NNE 11 17 1024.8 - 0.0 - - - - - - -
21/02:00pm 22.1 NNE 13 17 1024.9 - 0.0 - - - - - - -
21/01:30pm 21.8 NNE 12 17 1025.2 - 0.0 - - - - - - -
21/01:00pm 21.9 NNE 13 17 1025.3 - 0.0 - - - - - - -
21/12:30pm 22.1 NNE 13 18 1025.7 - 0.0 - - - - - - -
21/12:00pm 22.4 NNE 12 17 1026.3 - 0.0 - - - - - - -
21/11:30am 22.0 NNE 11 16 1026.7 - 0.0 - - - - - - -
21/11:00am 21.5 NNE 9 12 1027.2 - 0.0 - - - - - - -
21/10:30am 20.9 N 9 12 1027.5 - 0.0 - - - - - - -
21/10:00am 20.2 N 7 11 1027.6 - 0.0 - - - - - - -
21/09:30am 19.8 N 8 11 1027.9 - 0.0 - - - - - - -
21/09:00am 19.3 NNW 4 8 1027.9 - 0.0 - - - - - - -
21/08:30am 18.7 NNW 5 7 1027.9 - 0.0 - - - - - - -
21/08:00am 18.5 N 3 5 1027.6 - 0.0 - - - - - - -
21/07:30am 16.6 NW 3 4 1027.4 - 0.0 - - - - - - -
21/07:00am 15.2 NW 4 5 1027.2 - 0.0 - - - - - - -
21/06:30am 15.3 NW 3 4 1026.7 - 0.0 - - - - - - -
21/06:00am 15.9 NW 2 3 1026.4 - 0.0 - - - - - - -
21/05:30am 15.4 NW 3 5 1026.2 - 0.0 - - - - - - -
21/05:00am 15.4 WNW 2 2 1026.1 - 0.0 - - - - - - -
21/04:30am 15.7 NW 5 5 1026.1 - 0.0 - - - - - - -
21/04:00am 16.1 NNW 6 7 1025.8 - 0.0 - - - - - - -
21/03:30am 16.2 NNW 5 6 1025.9 - 0.0 - - - - - - -
21/03:00am 16.4 NNW 6 6 1026.1 - 0.0 - - - - - - -
21/02:30am 16.7 NNW 6 6 1026.2 - 0.0 - - - - - - -
21/02:00am 16.9 NNW 6 6 1026.3 - 0.0 - - - - - - -
21/01:30am 17.3 NW 6 6 1026.6 - 0.0 - - - - - - -
21/01:00am 17.4 NNW 5 6 1026.8 - 0.0 - - - - - - -
21/12:30am 17.4 NNW 6 7 1027.0 - 0.0 - - - - - - -
21/12:00am 17.5 NNW 5 6 1027.2 - 0.0 - - - - - - -

Other Formats:

Comma delimited format used in spreadsheet applications
http://www.bom.gov.au/fwo/IDN60701/IDN60701.95940.axf

JavaScript Object Notation format (JSON) in row-major order
http://www.bom.gov.au/fwo/IDN60701/IDN60701.95940.json